sensor_id;sensor_type;location;lat;lon;timestamp;pressure;altitude;pressure_sealevel;temperature;humidity
77288;BME280;66345;42.694;23.346;2023-03-26T00:01:26;95018.97;;;11.01;62.08
77288;BME280;66345;42.694;23.346;2023-03-26T00:03:53;95018.38;;;10.99;62.14
77288;BME280;66345;42.694;23.346;2023-03-26T00:06:31;95014.28;;;10.96;61.47
77288;BME280;66345;42.694;23.346;2023-03-26T00:08:59;95029.19;;;10.91;62.19
77288;BME280;66345;42.694;23.346;2023-03-26T00:11:26;95020.19;;;10.92;62.17
77288;BME280;66345;42.694;23.346;2023-03-26T00:13:52;95024.69;;;10.84;62.22
77288;BME280;66345;42.694;23.346;2023-03-26T00:16:22;95017.09;;;10.88;61.77
77288;BME280;66345;42.694;23.346;2023-03-26T00:18:48;95006.31;;;10.83;61.68
77288;BME280;66345;42.694;23.346;2023-03-26T00:21:17;95004.88;;;10.94;61.59
77288;BME280;66345;42.694;23.346;2023-03-26T00:23:44;94997.72;;;10.74;62.24
77288;BME280;66345;42.694;23.346;2023-03-26T00:26:11;94992.00;;;10.77;62.40
77288;BME280;66345;42.694;23.346;2023-03-26T00:28:39;94984.44;;;10.74;62.15
77288;BME280;66345;42.694;23.346;2023-03-26T00:31:07;94993.84;;;10.83;62.20
77288;BME280;66345;42.694;23.346;2023-03-26T00:33:33;94990.59;;;10.81;61.62
77288;BME280;66345;42.694;23.346;2023-03-26T00:36:04;94986.88;;;10.69;62.68
77288;BME280;66345;42.694;23.346;2023-03-26T00:38:30;94986.47;;;10.72;62.04
77288;BME280;66345;42.694;23.346;2023-03-26T00:40:59;94994.03;;;10.69;62.58
77288;BME280;66345;42.694;23.346;2023-03-26T00:43:34;94993.22;;;10.75;61.83
77288;BME280;66345;42.694;23.346;2023-03-26T00:46:00;95001.78;;;10.77;62.33
77288;BME280;66345;42.694;23.346;2023-03-26T00:48:26;95001.34;;;10.60;62.38
77288;BME280;66345;42.694;23.346;2023-03-26T00:50:54;95005.84;;;10.53;62.73
77288;BME280;66345;42.694;23.346;2023-03-26T00:53:20;94996.84;;;10.54;62.99
77288;BME280;66345;42.694;23.346;2023-03-26T00:55:46;95004.63;;;10.62;62.23
77288;BME280;66345;42.694;23.346;2023-03-26T00:58:13;94988.09;;;10.67;62.07
77288;BME280;66345;42.694;23.346;2023-03-26T01:00:57;94999.13;;;10.70;61.98
77288;BME280;66345;42.694;23.346;2023-03-26T01:03:25;94984.63;;;10.73;61.67
77288;BME280;66345;42.694;23.346;2023-03-26T01:08:38;94996.91;;;10.74;61.35
77288;BME280;66345;42.694;23.346;2023-03-26T01:11:22;94998.50;;;10.68;61.29
77288;BME280;66345;42.694;23.346;2023-03-26T01:13:53;95013.63;;;10.68;61.34
77288;BME280;66345;42.694;23.346;2023-03-26T01:16:27;95009.34;;;10.67;61.52
77288;BME280;66345;42.694;23.346;2023-03-26T01:18:55;95010.50;;;10.57;61.27
77288;BME280;66345;42.694;23.346;2023-03-26T01:21:24;94998.91;;;10.52;61.46
77288;BME280;66345;42.694;23.346;2023-03-26T01:23:59;95010.34;;;10.59;61.15
77288;BME280;66345;42.694;23.346;2023-03-26T01:26:49;95016.66;;;10.65;61.09
77288;BME280;66345;42.694;23.346;2023-03-26T01:42:55;95010.72;;;10.43;62.53
77288;BME280;66345;42.694;23.346;2023-03-26T01:45:26;95025.56;;;10.37;63.11
77288;BME280;66345;42.694;23.346;2023-03-26T01:47:52;95015.81;;;10.44;62.77
77288;BME280;66345;42.694;23.346;2023-03-26T01:50:19;95023.75;;;10.38;63.27
77288;BME280;66345;42.694;23.346;2023-03-26T01:52:44;95038.03;;;10.37;63.36
77288;BME280;66345;42.694;23.346;2023-03-26T01:55:10;95036.00;;;10.45;63.36
77288;BME280;66345;42.694;23.346;2023-03-26T02:00:28;95022.47;;;10.34;63.11
77288;BME280;66345;42.694;23.346;2023-03-26T02:05:34;95021.22;;;10.23;63.94
77288;BME280;66345;42.694;23.346;2023-03-26T02:08:13;95028.38;;;10.22;64.27
77288;BME280;66345;42.694;23.346;2023-03-26T02:10:44;95020.97;;;10.18;64.08
77288;BME280;66345;42.694;23.346;2023-03-26T02:13:11;95031.78;;;10.16;64.62
77288;BME280;66345;42.694;23.346;2023-03-26T02:15:39;95031.34;;;10.06;64.86
77288;BME280;66345;42.694;23.346;2023-03-26T02:18:06;95033.16;;;10.12;65.03
77288;BME280;66345;42.694;23.346;2023-03-26T02:20:35;95045.63;;;10.12;64.98
77288;BME280;66345;42.694;23.346;2023-03-26T02:23:01;95044.38;;;10.08;65.40
77288;BME280;66345;42.694;23.346;2023-03-26T02:25:26;95036.34;;;9.94;65.53
77288;BME280;66345;42.694;23.346;2023-03-26T02:27:52;95032.06;;;9.93;65.67
77288;BME280;66345;42.694;23.346;2023-03-26T02:30:22;95035.94;;;9.91;65.97
77288;BME280;66345;42.694;23.346;2023-03-26T02:32:52;95034.72;;;9.93;65.71
77288;BME280;66345;42.694;23.346;2023-03-26T02:35:19;95032.47;;;9.97;65.87
77288;BME280;66345;42.694;23.346;2023-03-26T02:37:46;95046.72;;;9.89;65.97
77288;BME280;66345;42.694;23.346;2023-03-26T02:40:16;95036.47;;;9.80;66.33
77288;BME280;66345;42.694;23.346;2023-03-26T02:42:41;95035.94;;;9.91;65.68
77288;BME280;66345;42.694;23.346;2023-03-26T02:45:07;95039.22;;;9.93;65.93
77288;BME280;66345;42.694;23.346;2023-03-26T02:47:33;95044.09;;;9.96;65.93
77288;BME280;66345;42.694;23.346;2023-03-26T02:49:58;95043.25;;;9.89;66.15
77288;BME280;66345;42.694;23.346;2023-03-26T02:52:26;95052.16;;;9.81;66.48
77288;BME280;66345;42.694;23.346;2023-03-26T02:54:51;95057.66;;;9.80;65.97
77288;BME280;66345;42.694;23.346;2023-03-26T02:57:18;95054.78;;;9.74;66.52
77288;BME280;66345;42.694;23.346;2023-03-26T02:59:43;95060.06;;;9.74;66.61
77288;BME280;66345;42.694;23.346;2023-03-26T03:02:10;95056.81;;;9.72;66.91
77288;BME280;66345;42.694;23.346;2023-03-26T03:04:38;95060.22;;;9.66;66.85
77288;BME280;66345;42.694;23.346;2023-03-26T03:07:04;95073.16;;;9.48;67.61
77288;BME280;66345;42.694;23.346;2023-03-26T03:09:30;95073.88;;;9.63;67.22
77288;BME280;66345;42.694;23.346;2023-03-26T03:11:55;95059.34;;;9.53;66.93
77288;BME280;66345;42.694;23.346;2023-03-26T03:14:21;95065.97;;;9.42;67.28
77288;BME280;66345;42.694;23.346;2023-03-26T03:16:46;95067.44;;;9.51;67.37
77288;BME280;66345;42.694;23.346;2023-03-26T03:19:12;95078.25;;;9.50;67.69
77288;BME280;66345;42.694;23.346;2023-03-26T03:21:38;95077.06;;;9.52;67.41
77288;BME280;66345;42.694;23.346;2023-03-26T03:24:04;95075.19;;;9.46;66.96
77288;BME280;66345;42.694;23.346;2023-03-26T03:26:31;95072.84;;;9.36;67.74
77288;BME280;66345;42.694;23.346;2023-03-26T03:28:58;95072.41;;;9.33;67.63
77288;BME280;66345;42.694;23.346;2023-03-26T03:31:25;95083.00;;;9.33;67.89
77288;BME280;66345;42.694;23.346;2023-03-26T03:33:51;95080.22;;;9.20;67.78
77288;BME280;66345;42.694;23.346;2023-03-26T03:36:19;95080.69;;;9.23;67.47
77288;BME280;66345;42.694;23.346;2023-03-26T03:38:48;95077.59;;;9.20;67.38
77288;BME280;66345;42.694;23.346;2023-03-26T03:41:14;95074.50;;;9.16;67.35
77288;BME280;66345;42.694;23.346;2023-03-26T03:43:42;95064.34;;;9.20;66.93
77288;BME280;66345;42.694;23.346;2023-03-26T03:46:08;95064.16;;;9.21;67.01
77288;BME280;66345;42.694;23.346;2023-03-26T03:48:33;95066.25;;;9.26;66.87
77288;BME280;66345;42.694;23.346;2023-03-26T03:51:02;95079.69;;;9.24;67.16
77288;BME280;66345;42.694;23.346;2023-03-26T03:53:28;95080.81;;;9.15;67.13
77288;BME280;66345;42.694;23.346;2023-03-26T03:55:55;95085.59;;;9.26;67.40
77288;BME280;66345;42.694;23.346;2023-03-26T03:58:22;95080.50;;;9.25;67.17
77288;BME280;66345;42.694;23.346;2023-03-26T04:00:49;95092.78;;;9.32;67.37
77288;BME280;66345;42.694;23.346;2023-03-26T04:03:15;95087.16;;;9.21;67.85
77288;BME280;66345;42.694;23.346;2023-03-26T04:05:42;95091.78;;;9.12;68.13
77288;BME280;66345;42.694;23.346;2023-03-26T04:08:14;95093.84;;;9.16;67.87
77288;BME280;66345;42.694;23.346;2023-03-26T04:10:40;95089.81;;;9.21;68.04
77288;BME280;66345;42.694;23.346;2023-03-26T04:13:08;95095.09;;;9.21;67.51
77288;BME280;66345;42.694;23.346;2023-03-26T04:15:33;95100.72;;;9.11;68.40
77288;BME280;66345;42.694;23.346;2023-03-26T04:18:00;95117.88;;;9.15;68.34
77288;BME280;66345;42.694;23.346;2023-03-26T04:20:25;95121.09;;;9.10;68.21
77288;BME280;66345;42.694;23.346;2023-03-26T04:22:51;95123.22;;;9.22;67.91
77288;BME280;66345;42.694;23.346;2023-03-26T04:25:17;95145.28;;;9.29;67.83
77288;BME280;66345;42.694;23.346;2023-03-26T04:27:42;95157.06;;;9.48;67.10
77288;BME280;66345;42.694;23.346;2023-03-26T04:30:11;95149.13;;;9.48;66.90
77288;BME280;66345;42.694;23.346;2023-03-26T04:32:39;95156.25;;;9.47;66.68
77288;BME280;66345;42.694;23.346;2023-03-26T04:35:09;95165.84;;;9.69;65.87
77288;BME280;66345;42.694;23.346;2023-03-26T04:37:38;95171.13;;;9.69;66.18
77288;BME280;66345;42.694;23.346;2023-03-26T04:40:07;95165.28;;;9.81;65.59
77288;BME280;66345;42.694;23.346;2023-03-26T04:42:35;95171.56;;;9.73;65.52
77288;BME280;66345;42.694;23.346;2023-03-26T04:45:04;95177.31;;;9.77;65.43
77288;BME280;66345;42.694;23.346;2023-03-26T04:47:30;95184.09;;;9.86;65.23
77288;BME280;66345;42.694;23.346;2023-03-26T04:49:55;95188.78;;;9.84;65.14
77288;BME280;66345;42.694;23.346;2023-03-26T04:52:21;95178.59;;;9.87;65.05
77288;BME280;66345;42.694;23.346;2023-03-26T04:54:47;95183.34;;;9.92;64.46
77288;BME280;66345;42.694;23.346;2023-03-26T04:59:41;95179.53;;;10.01;63.47
77288;BME280;66345;42.694;23.346;2023-03-26T05:02:09;95187.63;;;10.21;63.03
77288;BME280;66345;42.694;23.346;2023-03-26T05:04:37;95175.50;;;10.05;62.71
77288;BME280;66345;42.694;23.346;2023-03-26T05:07:09;95186.63;;;10.22;62.76
77288;BME280;66345;42.694;23.346;2023-03-26T05:09:35;95177.81;;;10.15;62.81
77288;BME280;66345;42.694;23.346;2023-03-26T05:12:00;95186.44;;;10.23;61.84
77288;BME280;66345;42.694;23.346;2023-03-26T05:14:27;95195.69;;;10.06;62.63
77288;BME280;66345;42.694;23.346;2023-03-26T05:16:53;95183.41;;;10.26;62.32
77288;BME280;66345;42.694;23.346;2023-03-26T05:19:18;95199.03;;;10.43;61.55
77288;BME280;66345;42.694;23.346;2023-03-26T05:21:44;95194.25;;;10.32;61.98
77288;BME280;66345;42.694;23.346;2023-03-26T05:24:10;95195.53;;;10.14;62.44
77288;BME280;66345;42.694;23.346;2023-03-26T05:26:35;95197.41;;;9.92;63.11
77288;BME280;66345;42.694;23.346;2023-03-26T05:29:02;95204.53;;;9.92;63.39
77288;BME280;66345;42.694;23.346;2023-03-26T05:31:29;95192.06;;;9.86;64.02
77288;BME280;66345;42.694;23.346;2023-03-26T05:33:55;95202.75;;;9.99;63.64
77288;BME280;66345;42.694;23.346;2023-03-26T05:36:21;95191.03;;;9.87;63.66
77288;BME280;66345;42.694;23.346;2023-03-26T05:38:47;95196.72;;;9.84;64.10
77288;BME280;66345;42.694;23.346;2023-03-26T05:41:14;95199.25;;;9.70;64.52
77288;BME280;66345;42.694;23.346;2023-03-26T05:43:41;95209.84;;;9.70;64.64
77288;BME280;66345;42.694;23.346;2023-03-26T05:46:09;95217.88;;;9.77;64.36
77288;BME280;66345;42.694;23.346;2023-03-26T05:48:34;95219.50;;;9.78;64.63
77288;BME280;66345;42.694;23.346;2023-03-26T05:51:02;95222.28;;;9.70;64.73
77288;BME280;66345;42.694;23.346;2023-03-26T05:53:28;95219.00;;;9.68;64.53
77288;BME280;66345;42.694;23.346;2023-03-26T05:55:53;95217.34;;;9.88;63.91
77288;BME280;66345;42.694;23.346;2023-03-26T05:58:26;95211.91;;;9.96;63.54
77288;BME280;66345;42.694;23.346;2023-03-26T06:00:56;95215.13;;;10.13;63.14
77288;BME280;66345;42.694;23.346;2023-03-26T06:03:22;95203.88;;;10.11;62.82
77288;BME280;66345;42.694;23.346;2023-03-26T06:05:48;95202.06;;;10.40;61.69
77288;BME280;66345;42.694;23.346;2023-03-26T06:08:15;95201.97;;;11.02;60.10
77288;BME280;66345;42.694;23.346;2023-03-26T06:10:40;95190.97;;;11.86;57.35
77288;BME280;66345;42.694;23.346;2023-03-26T06:13:06;95183.78;;;13.04;53.25
77288;BME280;66345;42.694;23.346;2023-03-26T06:15:33;95176.13;;;13.59;51.44
77288;BME280;66345;42.694;23.346;2023-03-26T06:17:59;95176.97;;;15.63;46.03
77288;BME280;66345;42.694;23.346;2023-03-26T06:20:24;95177.41;;;15.60;44.92
77288;BME280;66345;42.694;23.346;2023-03-26T06:22:50;95180.81;;;16.09;43.85
77288;BME280;66345;42.694;23.346;2023-03-26T06:25:16;95184.19;;;16.16;43.13
77288;BME280;66345;42.694;23.346;2023-03-26T06:27:41;95194.63;;;15.94;43.86
77288;BME280;66345;42.694;23.346;2023-03-26T06:30:07;95196.19;;;17.19;41.55
77288;BME280;66345;42.694;23.346;2023-03-26T06:32:32;95186.03;;;17.61;40.48
77288;BME280;66345;42.694;23.346;2023-03-26T06:34:58;95188.72;;;17.21;41.01
77288;BME280;66345;42.694;23.346;2023-03-26T06:37:23;95186.69;;;17.40;40.56
77288;BME280;66345;42.694;23.346;2023-03-26T06:39:49;95185.13;;;17.56;39.89
77288;BME280;66345;42.694;23.346;2023-03-26T06:42:14;95180.47;;;18.75;37.82
77288;BME280;66345;42.694;23.346;2023-03-26T06:44:40;95193.34;;;17.66;39.70
77288;BME280;66345;42.694;23.346;2023-03-26T06:47:05;95187.78;;;18.29;37.90
77288;BME280;66345;42.694;23.346;2023-03-26T06:49:31;95187.16;;;17.65;39.18
77288;BME280;66345;42.694;23.346;2023-03-26T06:51:56;95193.56;;;19.32;36.01
77288;BME280;66345;42.694;23.346;2023-03-26T06:54:22;95204.78;;;18.35;37.81
77288;BME280;66345;42.694;23.346;2023-03-26T06:56:49;95204.47;;;19.43;35.44
77288;BME280;66345;42.694;23.346;2023-03-26T06:59:16;95198.91;;;19.98;34.24
77288;BME280;66345;42.694;23.346;2023-03-26T07:01:42;95210.47;;;19.72;34.18
77288;BME280;66345;42.694;23.346;2023-03-26T07:04:07;95208.47;;;20.11;33.41
77288;BME280;66345;42.694;23.346;2023-03-26T07:06:33;95224.50;;;18.57;36.24
77288;BME280;66345;42.694;23.346;2023-03-26T07:08:58;95223.03;;;18.33;36.90
77288;BME280;66345;42.694;23.346;2023-03-26T07:11:24;95217.22;;;19.30;34.79
77288;BME280;66345;42.694;23.346;2023-03-26T07:13:51;95207.53;;;20.27;32.39
77288;BME280;66345;42.694;23.346;2023-03-26T07:16:16;95210.69;;;20.19;32.42
77288;BME280;66345;42.694;23.346;2023-03-26T07:18:42;95209.13;;;20.55;31.99
77288;BME280;66345;42.694;23.346;2023-03-26T07:21:08;95206.56;;;19.57;33.64
77288;BME280;66345;42.694;23.346;2023-03-26T07:23:34;95198.75;;;21.16;31.34
77288;BME280;66345;42.694;23.346;2023-03-26T07:26:12;95198.88;;;22.14;30.16
77288;BME280;66345;42.694;23.346;2023-03-26T07:31:40;95200.53;;;20.95;31.47
77288;BME280;66345;42.694;23.346;2023-03-26T07:34:39;95189.84;;;21.78;29.51
77288;BME280;66345;42.694;23.346;2023-03-26T07:43:34;95199.41;;;20.49;31.79
77288;BME280;66345;42.694;23.346;2023-03-26T07:46:03;95190.38;;;21.80;29.31
77288;BME280;66345;42.694;23.346;2023-03-26T07:48:55;95192.88;;;22.07;28.52
77288;BME280;66345;42.694;23.346;2023-03-26T07:51:23;95201.06;;;21.40;29.33
77288;BME280;66345;42.694;23.346;2023-03-26T07:53:49;95203.72;;;23.14;26.76
77288;BME280;66345;42.694;23.346;2023-03-26T07:59:09;95189.41;;;22.83;27.52
77288;BME280;66345;42.694;23.346;2023-03-26T08:01:49;95184.31;;;24.84;25.00
77288;BME280;66345;42.694;23.346;2023-03-26T08:04:54;95200.63;;;23.51;26.16
77288;BME280;66345;42.694;23.346;2023-03-26T08:07:32;95195.53;;;21.87;27.55
77288;BME280;66345;42.694;23.346;2023-03-26T08:15:51;95180.44;;;23.83;24.04
77288;BME280;66345;42.694;23.346;2023-03-26T08:18:42;95168.75;;;25.91;23.13
77288;BME280;66345;42.694;23.346;2023-03-26T08:29:27;95182.78;;;24.00;24.07
77288;BME280;66345;42.694;23.346;2023-03-26T08:31:57;95176.84;;;25.29;21.87
77288;BME280;66345;42.694;23.346;2023-03-26T08:34:24;95183.22;;;24.17;23.90
77288;BME280;66345;42.694;23.346;2023-03-26T08:36:49;95180.25;;;27.23;20.48
77288;BME280;66345;42.694;23.346;2023-03-26T08:39:15;95176.34;;;28.34;19.29
77288;BME280;66345;42.694;23.346;2023-03-26T08:55:33;95181.91;;;25.60;21.28
77288;BME280;66345;42.694;23.346;2023-03-26T09:06:53;95181.72;;;24.40;22.16
77288;BME280;66345;42.694;23.346;2023-03-26T09:10:18;95170.53;;;24.81;22.06
77288;BME280;66345;42.694;23.346;2023-03-26T09:40:18;95147.75;;;24.77;21.23
77288;BME280;66345;42.694;23.346;2023-03-26T09:42:55;95147.41;;;25.36;20.66
77288;BME280;66345;42.694;23.346;2023-03-26T09:51:11;95135.00;;;25.73;20.32
77288;BME280;66345;42.694;23.346;2023-03-26T09:59:17;95126.34;;;24.75;20.13
77288;BME280;66345;42.694;23.346;2023-03-26T10:09:54;95115.47;;;25.04;21.00
77288;BME280;66345;42.694;23.346;2023-03-26T10:12:31;95108.94;;;24.18;21.44
77288;BME280;66345;42.694;23.346;2023-03-26T10:25:58;95091.22;;;24.84;19.65
77288;BME280;66345;42.694;23.346;2023-03-26T10:31:56;95077.09;;;26.10;18.90
77288;BME280;66345;42.694;23.346;2023-03-26T10:40:15;95077.81;;;24.69;19.75
77288;BME280;66345;42.694;23.346;2023-03-26T10:46:02;95071.53;;;22.26;22.58
77288;BME280;66345;42.694;23.346;2023-03-26T10:54:08;95046.03;;;20.15;24.77
77288;BME280;66345;42.694;23.346;2023-03-26T10:56:42;95061.69;;;19.27;26.02
77288;BME280;66345;42.694;23.346;2023-03-26T10:59:12;95057.13;;;19.28;25.62
77288;BME280;66345;42.694;23.346;2023-03-26T11:15:45;95037.25;;;17.86;27.15
77288;BME280;66345;42.694;23.346;2023-03-26T11:18:34;95048.41;;;17.15;27.46
77288;BME280;66345;42.694;23.346;2023-03-26T11:21:03;95041.47;;;16.91;27.73
77288;BME280;66345;42.694;23.346;2023-03-26T11:31:58;95017.00;;;17.78;26.86
77288;BME280;66345;42.694;23.346;2023-03-26T11:34:31;95023.06;;;17.23;27.89
77288;BME280;66345;42.694;23.346;2023-03-26T11:37:01;95020.13;;;17.41;27.86
77288;BME280;66345;42.694;23.346;2023-03-26T11:39:39;95015.75;;;17.35;27.35
77288;BME280;66345;42.694;23.346;2023-03-26T11:42:09;95014.66;;;17.19;27.95
77288;BME280;66345;42.694;23.346;2023-03-26T11:44:40;94994.53;;;17.17;28.24
77288;BME280;66345;42.694;23.346;2023-03-26T11:47:10;94982.25;;;17.21;27.29
77288;BME280;66345;42.694;23.346;2023-03-26T11:49:39;94985.19;;;17.36;27.65
77288;BME280;66345;42.694;23.346;2023-03-26T11:52:08;94985.59;;;17.62;26.64
77288;BME280;66345;42.694;23.346;2023-03-26T11:54:34;94971.59;;;17.26;27.17
77288;BME280;66345;42.694;23.346;2023-03-26T11:57:05;94962.75;;;17.42;25.64
77288;BME280;66345;42.694;23.346;2023-03-26T11:59:39;94965.78;;;17.46;26.17
77288;BME280;66345;42.694;23.346;2023-03-26T12:02:15;94955.41;;;17.21;26.58
77288;BME280;66345;42.694;23.346;2023-03-26T12:04:43;94952.34;;;17.12;26.80
77288;BME280;66345;42.694;23.346;2023-03-26T12:07:22;94951.94;;;17.20;27.17
77288;BME280;66345;42.694;23.346;2023-03-26T12:09:59;94942.88;;;17.60;26.19
77288;BME280;66345;42.694;23.346;2023-03-26T12:12:45;94949.81;;;17.56;25.43
77288;BME280;66345;42.694;23.346;2023-03-26T12:15:13;94945.34;;;17.45;26.20
77288;BME280;66345;42.694;23.346;2023-03-26T12:17:39;94937.31;;;17.62;24.32
77288;BME280;66345;42.694;23.346;2023-03-26T12:20:30;94938.28;;;17.56;25.28
77288;BME280;66345;42.694;23.346;2023-03-26T12:22:58;94912.81;;;17.58;24.89
77288;BME280;66345;42.694;23.346;2023-03-26T12:25:26;94913.84;;;17.18;25.82
77288;BME280;66345;42.694;23.346;2023-03-26T12:30:49;94902.28;;;17.35;25.04
77288;BME280;66345;42.694;23.346;2023-03-26T12:33:28;94905.31;;;17.60;25.08
77288;BME280;66345;42.694;23.346;2023-03-26T12:35:59;94909.47;;;17.68;24.76
77288;BME280;66345;42.694;23.346;2023-03-26T12:38:40;94897.94;;;17.51;24.53
77288;BME280;66345;42.694;23.346;2023-03-26T12:41:14;94896.72;;;17.58;23.87
77288;BME280;66345;42.694;23.346;2023-03-26T12:46:29;94888.47;;;17.82;23.76
77288;BME280;66345;42.694;23.346;2023-03-26T12:49:02;94891.41;;;17.80;23.31
77288;BME280;66345;42.694;23.346;2023-03-26T12:57:13;94882.84;;;17.61;21.88
77288;BME280;66345;42.694;23.346;2023-03-26T13:03:09;94886.41;;;17.50;21.35
77288;BME280;66345;42.694;23.346;2023-03-26T13:11:12;94881.38;;;17.54;21.00
77288;BME280;66345;42.694;23.346;2023-03-26T13:19:00;94861.13;;;17.63;20.57
77288;BME280;66345;42.694;23.346;2023-03-26T13:27:08;94868.81;;;17.59;19.54
77288;BME280;66345;42.694;23.346;2023-03-26T13:29:40;94875.75;;;17.55;20.15
77288;BME280;66345;42.694;23.346;2023-03-26T13:45:38;94862.19;;;17.45;21.29
77288;BME280;66345;42.694;23.346;2023-03-26T13:48:13;94852.16;;;17.57;21.06
77288;BME280;66345;42.694;23.346;2023-03-26T13:50:43;94851.66;;;17.60;21.96
77288;BME280;66345;42.694;23.346;2023-03-26T13:53:17;94847.97;;;17.44;22.14
77288;BME280;66345;42.694;23.346;2023-03-26T13:55:48;94848.34;;;17.31;22.10
77288;BME280;66345;42.694;23.346;2023-03-26T14:01:05;94842.78;;;17.38;20.61
77288;BME280;66345;42.694;23.346;2023-03-26T14:04:12;94850.91;;;17.43;21.71
77288;BME280;66345;42.694;23.346;2023-03-26T14:26:00;94822.34;;;17.15;20.58
77288;BME280;66345;42.694;23.346;2023-03-26T14:34:15;94821.72;;;17.08;21.60
77288;BME280;66345;42.694;23.346;2023-03-26T14:39:38;94807.25;;;17.09;21.19
77288;BME280;66345;42.694;23.346;2023-03-26T14:42:37;94815.06;;;16.94;21.88
77288;BME280;66345;42.694;23.346;2023-03-26T14:47:39;94803.34;;;17.00;22.24
77288;BME280;66345;42.694;23.346;2023-03-26T14:53:04;94808.47;;;17.01;23.40
77288;BME280;66345;42.694;23.346;2023-03-26T14:55:56;94808.69;;;17.00;23.16
77288;BME280;66345;42.694;23.346;2023-03-26T14:58:55;94807.66;;;17.01;22.72
77288;BME280;66345;42.694;23.346;2023-03-26T15:13:02;94819.56;;;16.59;20.83
77288;BME280;66345;42.694;23.346;2023-03-26T15:15:49;94805.25;;;16.54;21.08
77288;BME280;66345;42.694;23.346;2023-03-26T15:28:42;94815.56;;;16.45;22.45
77288;BME280;66345;42.694;23.346;2023-03-26T15:31:08;94808.66;;;16.32;22.00
77288;BME280;66345;42.694;23.346;2023-03-26T15:53:42;94820.13;;;16.16;23.61
77288;BME280;66345;42.694;23.346;2023-03-26T16:04:47;94830.16;;;15.80;25.28
77288;BME280;66345;42.694;23.346;2023-03-26T16:10:26;94827.81;;;15.84;26.60
77288;BME280;66345;42.694;23.346;2023-03-26T16:13:16;94824.75;;;15.92;26.61
77288;BME280;66345;42.694;23.346;2023-03-26T16:16:17;94828.31;;;15.69;26.30
77288;BME280;66345;42.694;23.346;2023-03-26T16:18:46;94822.28;;;15.62;27.06
77288;BME280;66345;42.694;23.346;2023-03-26T16:29:21;94834.25;;;15.48;27.36
77288;BME280;66345;42.694;23.346;2023-03-26T16:31:25;94840.28;;;15.55;27.22
77288;BME280;66345;42.694;23.346;2023-03-26T16:34:18;94834.25;;;15.48;27.09
77288;BME280;66345;42.694;23.346;2023-03-26T16:36:46;94836.00;;;15.54;27.42
77288;BME280;66345;42.694;23.346;2023-03-26T16:39:22;94829.03;;;15.41;27.36
77288;BME280;66345;42.694;23.346;2023-03-26T16:41:56;94838.13;;;15.29;27.89
77288;BME280;66345;42.694;23.346;2023-03-26T16:44:29;94847.09;;;15.34;27.88
77288;BME280;66345;42.694;23.346;2023-03-26T16:47:23;94849.28;;;15.25;28.39
77288;BME280;66345;42.694;23.346;2023-03-26T16:50:14;94853.25;;;15.23;28.30
77288;BME280;66345;42.694;23.346;2023-03-26T16:55:50;94840.91;;;15.10;28.29
77288;BME280;66345;42.694;23.346;2023-03-26T16:58:51;94847.78;;;15.06;28.66
77288;BME280;66345;42.694;23.346;2023-03-26T17:04:18;94845.53;;;14.68;30.02
77288;BME280;66345;42.694;23.346;2023-03-26T17:10:01;94855.34;;;14.44;30.08
77288;BME280;66345;42.694;23.346;2023-03-26T17:12:43;94839.94;;;14.46;30.38
77288;BME280;66345;42.694;23.346;2023-03-26T17:18:15;94855.06;;;14.34;31.16
77288;BME280;66345;42.694;23.346;2023-03-26T17:20:56;94853.00;;;14.36;31.33
77288;BME280;66345;42.694;23.346;2023-03-26T17:29:29;94854.78;;;13.94;31.52
77288;BME280;66345;42.694;23.346;2023-03-26T17:32:06;94861.25;;;13.86;32.13
77288;BME280;66345;42.694;23.346;2023-03-26T17:42:33;94855.41;;;13.77;33.25
77288;BME280;66345;42.694;23.346;2023-03-26T17:50:13;94850.59;;;13.49;34.57
77288;BME280;66345;42.694;23.346;2023-03-26T17:52:55;94858.00;;;13.47;34.79
77288;BME280;66345;42.694;23.346;2023-03-26T17:55:25;94851.78;;;13.35;34.64
77288;BME280;66345;42.694;23.346;2023-03-26T17:57:59;94839.50;;;13.34;34.02
77288;BME280;66345;42.694;23.346;2023-03-26T18:00:32;94840.69;;;13.38;33.96
77288;BME280;66345;42.694;23.346;2023-03-26T18:03:02;94841.56;;;13.32;34.06
77288;BME280;66345;42.694;23.346;2023-03-26T18:05:29;94842.72;;;13.18;34.87
77288;BME280;66345;42.694;23.346;2023-03-26T18:18:33;94853.50;;;13.04;35.12
77288;BME280;66345;42.694;23.346;2023-03-26T18:21:03;94836.16;;;12.95;35.50
77288;BME280;66345;42.694;23.346;2023-03-26T18:23:35;94851.06;;;13.03;35.63
77288;BME280;66345;42.694;23.346;2023-03-26T18:26:11;94839.41;;;12.97;36.03
77288;BME280;66345;42.694;23.346;2023-03-26T18:28:49;94834.09;;;12.97;36.12
77288;BME280;66345;42.694;23.346;2023-03-26T18:31:22;94831.88;;;12.94;36.16
77288;BME280;66345;42.694;23.346;2023-03-26T18:33:53;94825.69;;;12.75;38.22
77288;BME280;66345;42.694;23.346;2023-03-26T18:36:23;94826.28;;;12.53;38.35
77288;BME280;66345;42.694;23.346;2023-03-26T18:38:49;94830.28;;;12.37;38.47
77288;BME280;66345;42.694;23.346;2023-03-26T18:41:23;94833.31;;;12.47;38.31
77288;BME280;66345;42.694;23.346;2023-03-26T18:43:51;94823.25;;;12.49;38.78
77288;BME280;66345;42.694;23.346;2023-03-26T18:46:19;94813.16;;;12.58;38.69
77288;BME280;66345;42.694;23.346;2023-03-26T18:48:49;94817.75;;;12.69;37.17
77288;BME280;66345;42.694;23.346;2023-03-26T18:51:14;94809.34;;;12.72;37.32
77288;BME280;66345;42.694;23.346;2023-03-26T18:53:53;94806.16;;;12.63;38.17
77288;BME280;66345;42.694;23.346;2023-03-26T18:56:36;94803.50;;;12.63;38.41
77288;BME280;66345;42.694;23.346;2023-03-26T18:59:05;94802.06;;;12.61;39.17
77288;BME280;66345;42.694;23.346;2023-03-26T19:01:34;94810.38;;;12.71;38.41
77288;BME280;66345;42.694;23.346;2023-03-26T19:04:03;94799.75;;;12.89;37.72
77288;BME280;66345;42.694;23.346;2023-03-26T19:06:32;94799.00;;;12.82;38.30